createdAt,value
2023-04-16T00:00:59.735Z,11.77
2023-04-16T00:03:28.048Z,11.78
2023-04-16T00:05:56.883Z,11.78
2023-04-16T00:08:25.540Z,11.79
2023-04-16T00:10:55.686Z,11.81
2023-04-16T00:13:23.652Z,11.85
2023-04-16T00:15:51.574Z,11.87
2023-04-16T00:18:21.180Z,11.93
2023-04-16T00:20:49.360Z,12.01
2023-04-16T00:23:17.372Z,12.05
2023-04-16T00:25:45.326Z,12.09
2023-04-16T00:28:14.687Z,12.15
2023-04-16T00:30:42.719Z,12.24
2023-04-16T00:33:10.763Z,12.30
2023-04-16T00:35:38.722Z,12.35
2023-04-16T00:38:06.655Z,12.38
2023-04-16T00:40:34.595Z,12.44
2023-04-16T00:43:02.573Z,12.38
2023-04-16T00:45:31.875Z,12.41
2023-04-16T00:48:00.628Z,12.50
2023-04-16T00:50:28.704Z,12.50
2023-04-16T00:52:56.680Z,12.44
2023-04-16T00:55:24.709Z,12.37
2023-04-16T00:57:52.683Z,12.32
2023-04-16T01:00:21.652Z,12.29
2023-04-16T01:02:51.096Z,12.25
2023-04-16T01:05:19.269Z,12.22
2023-04-16T01:07:47.236Z,12.22
2023-04-16T01:10:15.207Z,12.26
2023-04-16T01:12:43.165Z,12.26
2023-04-16T01:15:11.953Z,12.26
2023-04-16T01:17:40.041Z,12.25
2023-04-16T01:20:10.156Z,12.20
2023-04-16T01:22:39.498Z,12.15
2023-04-16T01:25:07.803Z,12.08
2023-04-16T01:27:37.607Z,12.04
2023-04-16T01:30:07.014Z,11.98
2023-04-16T01:32:34.972Z,11.96
2023-04-16T01:35:02.970Z,11.92
2023-04-16T01:37:31.030Z,11.88
2023-04-16T01:40:00.435Z,11.85
2023-04-16T01:42:28.419Z,11.82
2023-04-16T01:44:56.364Z,11.79
2023-04-16T01:47:24.398Z,11.75
2023-04-16T01:49:52.432Z,11.74
2023-04-16T01:52:20.339Z,11.70
2023-04-16T01:54:48.279Z,11.63
2023-04-16T01:57:17.589Z,11.60
2023-04-16T01:59:45.496Z,11.51
2023-04-16T02:02:14.650Z,11.48
2023-04-16T02:04:43.283Z,11.45
2023-04-16T02:07:11.286Z,11.39
2023-04-16T02:09:39.656Z,11.34
2023-04-16T02:12:07.780Z,11.29
2023-04-16T02:14:37.184Z,11.23
2023-04-16T02:17:05.164Z,11.16
2023-04-16T02:19:33.134Z,11.10
2023-04-16T02:22:01.740Z,11.05
2023-04-16T02:24:29.649Z,11.00
2023-04-16T02:26:58.269Z,10.97
2023-04-16T02:29:26.248Z,10.88
2023-04-16T02:31:55.599Z,10.84
2023-04-16T02:34:23.599Z,10.81
2023-04-16T02:36:51.537Z,10.78
2023-04-16T02:39:20.032Z,10.80
2023-04-16T02:41:47.998Z,10.77
2023-04-16T02:44:16.012Z,10.70
2023-04-16T02:46:43.941Z,10.65
2023-04-16T02:49:13.267Z,10.58
2023-04-16T02:51:41.245Z,10.53
2023-04-16T02:54:09.194Z,10.47
2023-04-16T02:56:37.164Z,10.43
2023-04-16T02:59:05.238Z,10.40
2023-04-16T03:01:33.255Z,10.42
2023-04-16T03:04:01.328Z,10.43
2023-04-16T03:06:31.482Z,10.48
2023-04-16T03:08:59.460Z,10.53
2023-04-16T03:11:27.404Z,10.55
2023-04-16T03:13:55.506Z,10.51
2023-04-16T03:16:23.564Z,10.41
2023-04-16T03:18:51.561Z,10.46
2023-04-16T03:21:19.571Z,10.48
2023-04-16T03:23:49.055Z,10.37
2023-04-16T03:26:17.014Z,10.45
2023-04-16T03:28:44.949Z,10.44
2023-04-16T03:31:13.135Z,10.46
2023-04-16T03:33:41.340Z,10.49
2023-04-16T03:36:10.052Z,10.63
2023-04-16T03:38:37.983Z,10.71
2023-04-16T03:41:07.429Z,10.83
2023-04-16T03:43:35.403Z,10.93
2023-04-16T03:46:03.402Z,11.01
2023-04-16T03:48:31.355Z,11.12
2023-04-16T03:50:59.305Z,11.23
2023-04-16T03:53:27.228Z,11.34
2023-04-16T03:55:55.416Z,11.39
2023-04-16T03:58:24.750Z,11.45
2023-04-16T04:00:54.935Z,11.56
2023-04-16T04:03:23.081Z,11.61
2023-04-16T04:05:51.312Z,11.74
2023-04-16T04:08:19.299Z,11.89
2023-04-16T04:10:47.201Z,12.08
2023-04-16T04:13:15.170Z,12.27
2023-04-16T04:15:45.170Z,12.49
2023-04-16T04:18:13.091Z,12.72
2023-04-16T04:20:41.331Z,12.89
2023-04-16T04:23:09.298Z,13.06
2023-04-16T04:25:37.239Z,13.30
2023-04-16T04:28:05.441Z,13.50
2023-04-16T04:30:33.589Z,13.70
2023-04-16T04:33:02.991Z,13.87
2023-04-16T04:35:30.966Z,14.09
2023-04-16T04:37:58.932Z,14.35
2023-04-16T04:40:26.922Z,14.73
2023-04-16T04:42:55.091Z,15.13
2023-04-16T04:45:25.503Z,15.39
2023-04-16T04:47:53.700Z,15.44
2023-04-16T04:50:23.091Z,15.43
2023-04-16T04:52:51.065Z,15.46
2023-04-16T04:55:19.265Z,15.49
2023-04-16T04:57:47.157Z,15.43
2023-04-16T05:00:15.206Z,15.38
2023-04-16T05:02:43.343Z,15.49
2023-04-16T05:05:11.453Z,15.69
2023-04-16T05:07:40.762Z,15.73
2023-04-16T05:10:10.221Z,15.65
2023-04-16T05:12:38.187Z,15.62
2023-04-16T05:15:06.804Z,15.70
2023-04-16T05:17:34.776Z,15.74
2023-04-16T05:20:02.777Z,15.91
2023-04-16T05:22:30.694Z,16.07
2023-04-16T05:25:00.049Z,16.12
2023-04-16T05:27:28.024Z,16.14
2023-04-16T05:29:55.992Z,16.18
2023-04-16T05:32:26.906Z,16.25
2023-04-16T05:34:55.051Z,16.32
2023-04-16T05:37:23.005Z,16.35
2023-04-16T05:39:51.234Z,16.27
2023-04-16T05:42:20.577Z,16.24
2023-04-16T05:44:48.531Z,16.19
2023-04-16T05:47:17.558Z,16.40
2023-04-16T05:49:45.520Z,16.49
2023-04-16T05:52:13.479Z,16.46
2023-04-16T05:54:41.440Z,16.52
2023-04-16T05:57:09.432Z,16.63
2023-04-16T05:59:38.730Z,16.83
2023-04-16T06:02:06.748Z,17.09
2023-04-16T06:04:35.779Z,17.51
2023-04-16T06:07:03.760Z,17.88
2023-04-16T06:09:31.749Z,18.32
2023-04-16T06:11:59.719Z,18.67
2023-04-16T06:14:27.665Z,18.83
2023-04-16T06:16:57.041Z,19.11
2023-04-16T06:19:25.094Z,19.03
2023-04-16T06:21:54.014Z,19.30
2023-04-16T06:24:22.106Z,19.34
2023-04-16T06:26:50.077Z,19.18
2023-04-16T06:29:18.015Z,19.23
2023-04-16T06:31:45.972Z,19.30
2023-04-16T06:34:15.346Z,19.00
2023-04-16T06:36:43.264Z,18.75
2023-04-16T06:39:11.550Z,18.77
2023-04-16T06:41:39.729Z,18.53
2023-04-16T06:44:07.689Z,18.41
2023-04-16T06:46:35.826Z,18.46
2023-04-16T06:49:03.785Z,18.45
2023-04-16T06:51:33.107Z,18.51
2023-04-16T06:54:01.147Z,18.72
2023-04-16T06:56:30.323Z,18.90
2023-04-16T06:58:59.082Z,19.22
2023-04-16T07:01:27.125Z,19.77
2023-04-16T07:03:55.778Z,20.31
2023-04-16T07:06:23.895Z,21.02
2023-04-16T07:08:53.192Z,21.51
2023-04-16T07:11:21.200Z,21.79
2023-04-16T07:13:50.166Z,21.72
2023-04-16T07:16:18.940Z,21.75
2023-04-16T07:18:46.958Z,22.13
2023-04-16T07:21:14.899Z,22.43
2023-04-16T07:23:42.937Z,22.35
2023-04-16T07:26:12.688Z,22.04
2023-04-16T07:28:40.687Z,21.46
2023-04-16T07:31:09.369Z,21.22
2023-04-16T07:33:37.305Z,21.03
2023-04-16T07:36:05.667Z,20.93
2023-04-16T07:38:34.727Z,20.68
2023-04-16T07:41:02.610Z,20.51
2023-04-16T07:43:31.910Z,20.73
2023-04-16T07:45:59.859Z,20.84
2023-04-16T07:48:27.976Z,20.87
2023-04-16T07:50:55.908Z,21.02
2023-04-16T07:53:23.881Z,21.35
2023-04-16T07:55:51.853Z,21.68
2023-04-16T07:58:19.767Z,22.00
2023-04-16T08:00:50.858Z,22.43
2023-04-16T08:03:19.150Z,22.79
2023-04-16T08:05:47.177Z,22.93
2023-04-16T08:08:15.133Z,23.02
2023-04-16T08:10:43.100Z,22.93
2023-04-16T08:13:11.117Z,23.12
2023-04-16T08:15:39.110Z,22.59
2023-04-16T08:18:12.960Z,22.58
2023-04-16T08:20:41.018Z,23.15
2023-04-16T08:23:09.028Z,23.27
2023-04-16T08:25:37.027Z,23.46
2023-04-16T08:28:05.239Z,23.18
2023-04-16T08:30:33.169Z,23.23
2023-04-16T08:33:01.482Z,23.29
2023-04-16T08:35:30.832Z,23.24
2023-04-16T08:38:02.196Z,23.66
2023-04-16T08:40:30.700Z,24.03
2023-04-16T08:43:00.188Z,23.95
2023-04-16T08:45:28.237Z,23.87
2023-04-16T08:47:56.612Z,23.84
2023-04-16T08:50:25.219Z,23.97
2023-04-16T08:52:54.953Z,24.60
2023-04-16T08:55:24.576Z,25.19
2023-04-16T08:57:56.292Z,25.01
2023-04-16T09:00:24.328Z,24.55
2023-04-16T09:02:52.759Z,24.96
2023-04-16T09:05:25.471Z,24.41
2023-04-16T09:07:55.068Z,24.59
2023-04-16T09:10:23.212Z,24.58
2023-04-16T09:12:51.306Z,24.54
2023-04-16T09:15:19.204Z,24.81
2023-04-16T09:17:47.150Z,24.77
2023-04-16T09:20:16.087Z,24.62
2023-04-16T09:22:44.230Z,24.84
2023-04-16T09:25:13.528Z,24.86
2023-04-16T09:27:41.510Z,24.56
2023-04-16T09:30:23.195Z,24.61
2023-04-16T09:32:51.385Z,24.63
2023-04-16T09:35:19.779Z,25.05
2023-04-16T09:37:56.566Z,25.19
2023-04-16T09:40:27.771Z,25.35
2023-04-16T09:42:58.432Z,25.94
2023-04-16T09:45:26.399Z,26.50
2023-04-16T09:47:54.375Z,26.25
2023-04-16T09:50:22.386Z,26.06
2023-04-16T09:52:51.733Z,25.20
2023-04-16T09:55:24.134Z,24.76
2023-04-16T09:57:59.511Z,24.22
2023-04-16T10:00:27.437Z,24.25
2023-04-16T10:03:04.979Z,24.31
2023-04-16T10:05:33.031Z,24.63
2023-04-16T10:08:01.698Z,25.01
2023-04-16T10:10:29.774Z,24.86
2023-04-16T10:12:59.133Z,24.75
2023-04-16T10:15:27.077Z,24.80
2023-04-16T10:17:55.256Z,24.76
2023-04-16T10:20:23.756Z,24.91
2023-04-16T10:22:51.692Z,25.38
2023-04-16T10:25:19.725Z,25.67
2023-04-16T10:27:47.699Z,25.93
2023-04-16T10:30:17.080Z,26.62
2023-04-16T10:32:45.476Z,27.38
2023-04-16T10:35:16.754Z,27.71
2023-04-16T10:37:45.380Z,27.56
2023-04-16T10:40:31.221Z,27.31
2023-04-16T10:42:59.343Z,27.90
2023-04-16T10:45:33.169Z,27.69
2023-04-16T10:48:01.221Z,27.32
2023-04-16T10:50:36.149Z,27.22
2023-04-16T10:53:25.431Z,27.14
2023-04-16T10:56:00.290Z,26.82
2023-04-16T10:58:28.723Z,26.44
2023-04-16T11:01:00.233Z,26.03
2023-04-16T11:03:32.244Z,25.43
2023-04-16T11:06:12.550Z,25.41
2023-04-16T11:08:53.914Z,25.31
2023-04-16T11:11:23.364Z,25.24
2023-04-16T11:13:51.279Z,25.04
2023-04-16T11:16:20.604Z,24.95
2023-04-16T11:18:51.333Z,24.64
2023-04-16T11:21:19.840Z,24.63
2023-04-16T11:23:49.448Z,24.26
2023-04-16T11:26:27.468Z,24.29
2023-04-16T11:28:56.280Z,24.11
2023-04-16T11:31:27.332Z,24.10
2023-04-16T11:33:57.282Z,24.15
2023-04-16T11:36:27.481Z,23.98
2023-04-16T11:39:02.542Z,24.24
2023-04-16T11:41:30.539Z,24.46
2023-04-16T11:43:58.526Z,24.40
2023-04-16T11:46:40.722Z,24.02
2023-04-16T11:49:09.002Z,23.86
2023-04-16T11:51:41.234Z,24.15
2023-04-16T11:54:11.862Z,24.14
2023-04-16T11:56:40.410Z,24.07
2023-04-16T11:59:11.991Z,24.26
2023-04-16T12:01:42.318Z,24.38
2023-04-16T12:04:10.572Z,24.32
2023-04-16T12:06:38.727Z,24.26
2023-04-16T12:09:24.334Z,24.32
2023-04-16T12:11:52.412Z,24.19
2023-04-16T12:14:20.449Z,24.22
2023-04-16T12:16:49.813Z,24.01
2023-04-16T12:19:17.791Z,23.74
2023-04-16T12:21:46.350Z,23.67
2023-04-16T12:24:15.416Z,23.65
2023-04-16T12:26:43.982Z,23.68
2023-04-16T12:29:19.521Z,23.65
2023-04-16T12:31:49.052Z,24.12
2023-04-16T12:34:17.364Z,25.12
2023-04-16T12:36:45.927Z,25.88
2023-04-16T12:39:14.789Z,25.70
2023-04-16T12:41:43.711Z,25.88
2023-04-16T12:44:13.349Z,26.44
2023-04-16T12:46:41.784Z,26.95
2023-04-16T12:49:11.610Z,26.29
2023-04-16T12:51:39.882Z,24.89
2023-04-16T12:54:08.516Z,24.93
2023-04-16T12:56:36.825Z,25.57
2023-04-16T12:59:04.994Z,25.66
2023-04-16T13:01:36.150Z,25.71
2023-04-16T13:04:04.283Z,25.46
2023-04-16T13:06:33.892Z,24.75
2023-04-16T13:09:01.893Z,24.57
2023-04-16T13:11:29.864Z,24.39
2023-04-16T13:13:58.252Z,23.77
2023-04-16T13:16:26.347Z,23.48
2023-04-16T13:18:54.441Z,23.43
2023-04-16T13:21:23.790Z,23.31
2023-04-16T13:23:54.057Z,23.12
2023-04-16T13:26:22.179Z,23.02
2023-04-16T13:28:50.169Z,22.88
2023-04-16T13:31:20.578Z,22.73
2023-04-16T13:33:48.655Z,22.35
2023-04-16T13:36:16.610Z,22.48
2023-04-16T13:38:44.638Z,22.50
2023-04-16T13:41:13.946Z,22.41
2023-04-16T13:43:41.971Z,22.35
2023-04-16T13:46:09.914Z,22.26
2023-04-16T13:48:37.912Z,22.11
2023-04-16T13:51:06.078Z,22.10
2023-04-16T13:53:34.062Z,22.18
2023-04-16T13:56:03.717Z,22.07
2023-04-16T13:58:33.020Z,22.14
2023-04-16T14:01:01.264Z,22.32
2023-04-16T14:03:29.388Z,22.51
2023-04-16T14:05:57.400Z,22.61
2023-04-16T14:08:25.441Z,22.84
2023-04-16T14:10:55.592Z,22.65
2023-04-16T14:13:23.675Z,22.63
2023-04-16T14:15:54.603Z,22.69
2023-04-16T14:18:22.552Z,22.86
2023-04-16T14:20:50.732Z,22.81
2023-04-16T14:23:18.782Z,22.91
2023-04-16T14:25:46.729Z,22.77
2023-04-16T14:28:15.720Z,22.53
2023-04-16T14:30:43.887Z,22.54
2023-04-16T14:33:13.265Z,22.71
2023-04-16T14:35:41.230Z,22.41
2023-04-16T14:38:09.260Z,22.43
2023-04-16T14:40:37.255Z,22.32
2023-04-16T14:43:05.383Z,22.39
2023-04-16T14:45:33.386Z,22.35
2023-04-16T14:48:01.463Z,22.30
2023-04-16T14:50:30.950Z,22.27
2023-04-16T14:52:58.942Z,22.21
2023-04-16T14:55:26.927Z,22.03
2023-04-16T14:57:54.896Z,21.80
2023-04-16T15:00:23.691Z,21.78
2023-04-16T15:02:51.906Z,21.65
2023-04-16T15:05:19.978Z,21.43
2023-04-16T15:07:49.314Z,21.43
2023-04-16T15:10:17.419Z,21.11
2023-04-16T15:12:45.430Z,21.00
2023-04-16T15:15:13.387Z,20.79
2023-04-16T15:17:41.619Z,20.69
2023-04-16T15:20:10.691Z,20.63
2023-04-16T15:22:38.638Z,20.53
2023-04-16T15:25:08.949Z,20.56
2023-04-16T15:27:36.957Z,20.54
2023-04-16T15:30:06.523Z,20.50
2023-04-16T15:32:34.595Z,20.45
2023-04-16T15:35:03.579Z,20.46
2023-04-16T15:37:31.524Z,20.29
2023-04-16T15:39:59.486Z,20.27
2023-04-16T15:42:28.785Z,20.21
2023-04-16T15:44:56.708Z,20.22
2023-04-16T15:47:24.667Z,20.15
2023-04-16T15:49:52.623Z,20.15
2023-04-16T15:52:21.055Z,20.05
2023-04-16T15:54:49.001Z,19.93
2023-04-16T15:57:16.964Z,19.82
2023-04-16T15:59:59.541Z,19.88
2023-04-16T16:02:34.675Z,19.75
2023-04-16T16:05:03.349Z,19.64
2023-04-16T16:07:31.263Z,19.49
2023-04-16T16:09:59.260Z,19.47
2023-04-16T16:12:27.357Z,19.39
2023-04-16T16:14:56.832Z,19.24
2023-04-16T16:17:24.821Z,19.01
2023-04-16T16:19:52.839Z,18.96
2023-04-16T16:22:23.669Z,18.82
2023-04-16T16:24:52.060Z,18.79
2023-04-16T16:27:20.027Z,18.64
2023-04-16T16:29:48.023Z,18.52
2023-04-16T16:32:17.580Z,18.41
2023-04-16T16:34:45.692Z,18.42
2023-04-16T16:37:13.657Z,18.31
2023-04-16T16:39:41.647Z,18.18
2023-04-16T16:42:09.725Z,18.08
2023-04-16T16:44:38.003Z,17.94
2023-04-16T16:47:06.585Z,17.80
2023-04-16T16:49:36.022Z,17.86
2023-04-16T16:52:03.949Z,17.71
2023-04-16T16:54:32.028Z,17.66
2023-04-16T16:57:00.006Z,17.47
2023-04-16T16:59:27.940Z,17.39
2023-04-16T17:01:55.927Z,17.32
2023-04-16T17:04:24.088Z,17.28
2023-04-16T17:06:53.565Z,17.08
2023-04-16T17:09:21.538Z,17.00
2023-04-16T17:11:49.484Z,16.93
2023-04-16T17:14:17.440Z,16.80
2023-04-16T17:16:46.766Z,16.63
2023-04-16T17:19:15.416Z,16.60
2023-04-16T17:21:43.337Z,16.52
2023-04-16T17:24:12.815Z,16.43
2023-04-16T17:26:41.251Z,16.40
2023-04-16T17:29:09.262Z,16.36
2023-04-16T17:31:37.311Z,16.34
2023-04-16T17:34:06.367Z,16.32
2023-04-16T17:36:34.339Z,16.36
2023-04-16T17:39:02.291Z,16.37
2023-04-16T17:41:31.719Z,16.38
2023-04-16T17:43:59.695Z,16.42
2023-04-16T17:46:27.674Z,16.36
2023-04-16T17:48:55.656Z,16.28
2023-04-16T17:51:23.582Z,16.23
2023-04-16T17:53:51.946Z,16.14
2023-04-16T17:56:19.862Z,16.08
2023-04-16T17:58:49.154Z,16.03
2023-04-16T18:01:17.111Z,15.98
2023-04-16T18:03:45.454Z,15.87
2023-04-16T18:06:13.484Z,15.80
2023-04-16T18:08:41.445Z,15.73
2023-04-16T18:11:09.354Z,15.72
2023-04-16T18:13:37.310Z,15.69
2023-04-16T18:16:07.659Z,15.66
2023-04-16T18:18:35.769Z,15.62
2023-04-16T18:21:03.692Z,15.61
2023-04-16T18:23:31.674Z,15.56
2023-04-16T18:25:59.639Z,15.53
2023-04-16T18:28:27.930Z,15.47
2023-04-16T18:30:58.979Z,15.40
2023-04-16T18:33:52.411Z,15.36
2023-04-16T18:36:16.526Z,15.31
2023-04-16T18:38:59.331Z,15.29
2023-04-16T18:41:28.592Z,15.24
2023-04-16T18:43:56.582Z,15.21
2023-04-16T18:46:25.322Z,15.17
2023-04-16T18:48:54.791Z,15.12
2023-04-16T18:51:22.727Z,15.05
2023-04-16T18:53:50.734Z,14.95
2023-04-16T18:56:18.711Z,14.95
2023-04-16T18:58:47.857Z,14.91
2023-04-16T19:01:16.551Z,14.86
2023-04-16T19:03:45.608Z,14.85
2023-04-16T19:06:14.990Z,14.81
2023-04-16T19:08:42.969Z,14.77
2023-04-16T19:11:10.980Z,14.77
2023-04-16T19:13:39.301Z,14.78
2023-04-16T19:16:12.256Z,14.76
2023-04-16T19:18:40.369Z,14.79
2023-04-16T19:21:10.097Z,14.81
2023-04-16T19:23:39.453Z,14.77
2023-04-16T19:26:07.452Z,14.67
2023-04-16T19:28:35.395Z,14.57
2023-04-16T19:31:03.354Z,14.48
2023-04-16T19:33:31.406Z,14.39
2023-04-16T19:36:00.254Z,14.29
2023-04-16T19:38:28.191Z,14.22
2023-04-16T19:40:57.553Z,14.15
2023-04-16T19:43:25.465Z,14.06
2023-04-16T19:45:53.597Z,14.04
2023-04-16T19:48:21.604Z,14.00
2023-04-16T19:50:49.600Z,13.95
2023-04-16T19:53:17.574Z,13.91
2023-04-16T19:55:45.560Z,13.88
2023-04-16T19:58:15.088Z,13.83
2023-04-16T20:00:43.259Z,13.82
2023-04-16T20:03:11.426Z,13.76
2023-04-16T20:05:39.416Z,13.79
2023-04-16T20:08:07.699Z,13.78
2023-04-16T20:10:36.113Z,13.73
2023-04-16T20:13:04.995Z,13.66
2023-04-16T20:15:34.334Z,13.56
2023-04-16T20:18:02.327Z,13.55
2023-04-16T20:20:30.631Z,13.49
2023-04-16T20:22:59.714Z,13.41
2023-04-16T20:25:29.308Z,13.37
2023-04-16T20:27:57.318Z,13.29
2023-04-16T20:30:29.225Z,13.15
2023-04-16T20:32:58.649Z,13.11
2023-04-16T20:35:27.159Z,13.04
2023-04-16T20:37:55.125Z,12.96
2023-04-16T20:40:24.106Z,12.87
2023-04-16T20:42:52.215Z,12.82
2023-04-16T20:45:20.404Z,12.69
2023-04-16T20:47:48.379Z,12.60
2023-04-16T20:50:17.918Z,12.45
2023-04-16T20:52:45.909Z,12.37
2023-04-16T20:55:13.873Z,12.38
2023-04-16T20:57:41.801Z,12.40
2023-04-16T21:00:12.206Z,12.40
2023-04-16T21:02:40.444Z,12.37
2023-04-16T21:05:10.520Z,12.35
2023-04-16T21:07:39.838Z,12.31
2023-04-16T21:10:09.158Z,12.36
2023-04-16T21:12:37.289Z,12.37
2023-04-16T21:15:05.684Z,12.34
2023-04-16T21:17:33.660Z,12.41
2023-04-16T21:20:01.614Z,12.39
2023-04-16T21:22:29.587Z,12.33
2023-04-16T21:24:58.929Z,12.12
2023-04-16T21:27:26.876Z,12.20
2023-04-16T21:29:54.868Z,12.17
2023-04-16T21:32:22.892Z,12.09
2023-04-16T21:34:50.898Z,11.95
2023-04-16T21:37:18.845Z,11.92
2023-04-16T21:39:46.804Z,11.88
2023-04-16T21:42:16.104Z,11.82
2023-04-16T21:44:44.078Z,11.76
2023-04-16T21:47:12.038Z,11.77
2023-04-16T21:49:40.126Z,11.79
2023-04-16T21:52:14.099Z,11.77
2023-04-16T21:54:42.146Z,11.76
2023-04-16T21:57:10.138Z,11.72
2023-04-16T21:59:39.522Z,11.70
2023-04-16T22:02:07.578Z,11.70
2023-04-16T22:04:38.957Z,11.63
2023-04-16T22:07:08.809Z,11.59
2023-04-16T22:09:36.775Z,11.54
2023-04-16T22:12:06.913Z,11.52
2023-04-16T22:14:35.723Z,11.53
2023-04-16T22:17:05.052Z,11.52
2023-04-16T22:19:34.854Z,11.51
2023-04-16T22:22:02.854Z,11.52
2023-04-16T22:24:31.016Z,11.52
2023-04-16T22:26:58.989Z,11.50
2023-04-16T22:29:26.938Z,11.38
2023-04-16T22:31:55.212Z,11.41
2023-04-16T22:34:24.582Z,11.37
2023-04-16T22:36:52.554Z,11.34
2023-04-16T22:39:20.511Z,11.19
2023-04-16T22:41:48.505Z,11.18
2023-04-16T22:44:16.416Z,11.17
2023-04-16T22:46:45.183Z,11.14
2023-04-16T22:49:13.420Z,11.13
2023-04-16T22:51:43.448Z,11.11
2023-04-16T22:54:13.768Z,11.09
2023-04-16T22:56:42.006Z,11.02
2023-04-16T22:59:10.202Z,11.00
2023-04-16T23:01:38.663Z,10.94
2023-04-16T23:04:06.705Z,10.99
2023-04-16T23:06:34.660Z,10.95
2023-04-16T23:09:05.099Z,10.97
2023-04-16T23:11:33.097Z,10.98
2023-04-16T23:14:01.056Z,11.01
2023-04-16T23:16:29.021Z,11.00
2023-04-16T23:18:57.016Z,11.03
2023-04-16T23:21:24.971Z,10.97
2023-04-16T23:23:53.107Z,10.87
2023-04-16T23:26:22.411Z,10.81
2023-04-16T23:28:50.393Z,10.80
2023-04-16T23:31:18.413Z,10.78
2023-04-16T23:33:46.425Z,10.79
2023-04-16T23:36:14.412Z,10.77
2023-04-16T23:38:42.367Z,10.79
2023-04-16T23:41:10.334Z,10.79
2023-04-16T23:43:40.799Z,10.79
2023-04-16T23:46:08.832Z,10.79
2023-04-16T23:48:36.796Z,10.81
2023-04-16T23:51:05.199Z,10.90
2023-04-16T23:53:33.128Z,11.01
2023-04-16T23:56:01.041Z,11.07
2023-04-16T23:58:28.995Z,11.14
